Ararat, North Carolina
Current Conditions -  °F | °C
As of 10:35 AM on Thursday 23 Oct 2014 (Local Time) from KMWK Reporting Station
Clear Clear  
Wind Chill: 13°   Ceiling: Unl
Heat Index: 13°   Visibility: 10mi
Dew Point:   Wind: 12mph
Humidity: 56%   Direction: 330°NNW
Pressure: 30.1"   Gusts: 28mph
Location:  36.4°N, 80.56°W
Report Text: KMWK 231435Z AUTO 33010G24KT 10SM CLR 13/05 A3010 RMK AO2 T01300045
Loading
Personal Weather Stations






























Interactive Weather Map
Tropical Storm Tracking
New forecast layout! Learn more

10-Day Weather Forecast

Advertisements
Track Severe Weather on mobile